Destinations Priština International Airport

Priština International Airport (BKPR / PRN)

Flights to Priština International Airport

Flight number From ETE Dispatch
SPY-508 EHGG Groningen Airport Eelde 02:35

Flights from Priština International Airport

Flight number To ETE Dispatch
SPY-509 EHGG Groningen Airport Eelde
About

Priština International Airport facts

Priština International Airport is located in Pristina at an elevation of 545.3 meters or 1789 feet.

Currently, Speedy Airlines serves 2 flights to and from Priština International Airport.

Detailed airport info

Route map

Weather

Current weather

METAR

METAR

Metar data retrieved Sunday, 21 July 2024 at 19:25 UTC

BKPR 211900Z 36013KT CAVOK 23/20 Q1011 NOSIG
Wind Temperature
13 kt 23c